Time;durP1;ratioP1;P1;durP2;ratioP2;P2;SDS_P1;SDS_P2;PMS_P1;PMS_P2;Temp;Humidity;BMP_temperature;BMP_pressure;BME280_temperature;BME280_humidity;BME280_pressure;Samples;Min_cycle;Max_cycle;Signal;HPM_P1;HPM_P2
2023/09/17 00:01:39;;;;;;;27.00;24.65;;;14.90;91.40;;;;;;5054604;28;19908;-51
2023/09/17 00:04:07;;;;;;;27.02;24.73;;;14.80;91.50;;;;;;5045512;28;20025;-49
2023/09/17 00:06:34;;;;;;;25.85;23.58;;;14.80;91.50;;;;;;5052324;28;20434;-50
2023/09/17 00:09:03;;;;;;;27.98;25.48;;;14.80;91.60;;;;;;5038123;28;20087;-50
2023/09/17 00:11:29;;;;;;;24.73;22.55;;;14.70;91.60;;;;;;5066590;28;20028;-51
2023/09/17 00:13:55;;;;;;;24.45;22.30;;;14.70;91.60;;;;;;5068377;28;20426;-48
2023/09/17 00:16:21;;;;;;;27.42;25.05;;;14.60;91.50;;;;;;5054513;28;20079;-53
2023/09/17 00:18:50;;;;;;;27.58;25.17;;;14.60;91.50;;;;;;5014916;28;20025;-49
2023/09/17 00:21:16;;;;;;;27.40;25.00;;;14.60;91.50;;;;;;5031249;28;20029;-50
2023/09/17 00:23:44;;;;;;;28.40;26.00;;;14.50;91.40;;;;;;5026890;28;20148;-48
2023/09/17 00:26:15;;;;;;;24.50;22.27;;;14.50;91.50;;;;;;5072363;28;20032;-52
2023/09/17 00:28:42;;;;;;;25.80;23.52;;;14.50;91.50;;;;;;5071804;28;20024;-52
2023/09/17 00:31:10;;;;;;;26.38;24.10;;;14.50;91.50;;;;;;5067712;28;20028;-48
2023/09/17 00:33:36;;;;;;;27.88;25.38;;;14.50;91.50;;;;;;5056856;28;20120;-49
2023/09/17 00:36:02;;;;;;;24.45;22.35;;;14.40;91.50;;;;;;5052189;28;20403;-48
2023/09/17 00:38:29;;;;;;;22.35;20.45;;;14.40;91.50;;;;;;5049456;28;20112;-50
2023/09/17 00:40:56;;;;;;;23.23;21.27;;;14.40;91.50;;;;;;5042613;28;20057;-49
2023/09/17 00:43:22;;;;;;;24.17;22.10;;;14.40;91.40;;;;;;5058101;28;20048;-47
2023/09/17 00:45:49;;;;;;;24.15;22.15;;;14.30;91.40;;;;;;5070003;28;20485;-52
2023/09/17 00:48:16;;;;;;;23.75;21.83;;;14.20;91.30;;;;;;5068093;28;20111;-51
2023/09/17 00:50:44;;;;;;;21.38;19.63;;;14.20;91.40;;;;;;5033429;28;20041;-50
2023/09/17 00:53:12;;;;;;;22.92;21.02;;;14.20;91.60;;;;;;5047218;28;20342;-50
2023/09/17 00:55:39;;;;;;;26.42;24.30;;;14.20;91.40;;;;;;5064332;28;20036;-47
2023/09/17 00:58:08;;;;;;;22.13;20.13;;;14.10;91.40;;;;;;5054613;28;20047;-52
2023/09/17 01:00:38;;;;;;;24.20;22.00;;;14.10;91.60;;;;;;5057706;28;20025;-47
2023/09/17 01:03:06;;;;;;;22.83;20.95;;;14.10;91.50;;;;;;5052620;28;20028;-49
2023/09/17 01:05:41;;;;;;;22.27;20.27;;;14.00;91.40;;;;;;5057363;28;20022;-50
2023/09/17 01:08:09;;;;;;;22.70;20.70;;;14.00;91.40;;;;;;5035613;28;20086;-47
2023/09/17 01:10:40;;;;;;;23.65;21.65;;;13.90;91.40;;;;;;5048571;28;20060;-50
2023/09/17 01:13:12;;;;;;;23.85;21.83;;;13.90;91.50;;;;;;5052780;28;20120;-48
2023/09/17 01:15:38;;;;;;;23.80;21.85;;;13.90;91.50;;;;;;5038969;28;20119;-48
2023/09/17 01:18:07;;;;;;;20.80;19.10;;;13.90;91.40;;;;;;5075447;28;20449;-47
2023/09/17 01:20:53;;;;;;;21.15;19.38;;;13.80;91.50;;;;;;5057404;28;20025;-48
2023/09/17 01:24:07;;;;;;;21.77;19.88;;;13.80;91.50;;;;;;5034458;28;20405;-48
2023/09/17 01:26:35;;;;;;;21.50;19.70;;;13.80;91.50;;;;;;5051903;28;20025;-49
2023/09/17 01:29:04;;;;;;;21.92;20.13;;;13.70;91.30;;;;;;5059667;28;20029;-49
2023/09/17 01:31:30;;;;;;;22.98;21.00;;;13.70;91.50;;;;;;5051972;28;20151;-46
2023/09/17 01:33:57;;;;;;;21.98;19.75;;;13.70;91.50;;;;;;5057032;28;20025;-45
2023/09/17 01:36:35;;;;;;;21.67;19.77;;;13.60;91.50;;;;;;5051006;28;20108;-47
2023/09/17 01:39:12;;;;;;;20.33;18.67;;;13.60;91.60;;;;;;5049769;28;20454;-48
2023/09/17 01:41:40;;;;;;;19.75;18.05;;;13.60;91.60;;;;;;5052038;28;20092;-49
2023/09/17 01:44:08;;;;;;;21.10;19.35;;;13.60;91.60;;;;;;5036736;28;20028;-45
2023/09/17 01:46:37;;;;;;;22.80;20.85;;;13.50;91.60;;;;;;5053832;28;20037;-46
2023/09/17 01:49:11;;;;;;;20.95;19.10;;;13.50;91.60;;;;;;5055843;28;20032;-48
2023/09/17 01:51:39;;;;;;;21.10;19.40;;;13.50;91.70;;;;;;5039276;28;20072;-48
2023/09/17 01:54:06;;;;;;;20.35;18.67;;;13.50;91.60;;;;;;5036809;28;20045;-48
2023/09/17 01:56:41;;;;;;;21.30;19.50;;;13.50;91.70;;;;;;5038052;28;20160;-47
2023/09/17 01:59:08;;;;;;;21.13;19.38;;;13.40;91.70;;;;;;5060293;28;20128;-47
2023/09/17 02:01:35;;;;;;;21.02;19.17;;;13.40;91.60;;;;;;5062509;28;20469;-46
2023/09/17 02:04:04;;;;;;;21.92;20.13;;;13.40;91.60;;;;;;5063447;28;20104;-48
2023/09/17 02:06:32;;;;;;;19.88;18.27;;;13.40;91.60;;;;;;5053983;28;20025;-44
2023/09/17 02:08:59;;;;;;;20.85;19.13;;;13.30;91.60;;;;;;5035059;28;20037;-49
2023/09/17 02:11:28;;;;;;;21.85;20.05;;;13.30;91.60;;;;;;5036833;28;20458;-45
2023/09/17 02:13:55;;;;;;;20.85;19.15;;;13.30;91.60;;;;;;5017200;28;20157;-47
2023/09/17 02:16:22;;;;;;;19.42;17.83;;;13.20;91.50;;;;;;5033946;28;20112;-48
2023/09/17 02:18:51;;;;;;;20.27;18.58;;;13.20;91.50;;;;;;5048418;28;20104;-49
2023/09/17 02:21:18;;;;;;;22.45;20.35;;;13.20;91.60;;;;;;5057740;28;20638;-47
2023/09/17 02:23:45;;;;;;;21.30;19.50;;;13.10;91.40;;;;;;5036740;28;20028;-49
2023/09/17 02:26:15;;;;;;;21.20;19.48;;;13.00;91.40;;;;;;5073004;28;20033;-47
2023/09/17 02:28:44;;;;;;;20.83;19.08;;;13.00;91.50;;;;;;5065351;28;20465;-46
2023/09/17 02:31:10;;;;;;;20.10;18.33;;;13.00;91.50;;;;;;5060753;28;20041;-48
2023/09/17 02:33:36;;;;;;;20.83;19.13;;;13.00;91.40;;;;;;5035853;28;20037;-46
2023/09/17 02:36:03;;;;;;;20.52;18.73;;;13.00;91.20;;;;;;5052784;28;20328;-49
2023/09/17 02:38:32;;;;;;;20.65;18.90;;;12.90;91.30;;;;;;5041869;28;20027;-47
2023/09/17 02:40:58;;;;;;;19.63;17.80;;;12.90;91.40;;;;;;5062520;28;20033;-47
2023/09/17 02:43:29;;;;;;;20.15;18.45;;;12.90;91.40;;;;;;5035034;28;20039;-47
2023/09/17 02:45:56;;;;;;;20.58;18.73;;;12.90;91.30;;;;;;5059139;28;20056;-46
2023/09/17 02:48:23;;;;;;;20.15;18.48;;;12.90;91.30;;;;;;5064680;28;20067;-46
2023/09/17 02:50:49;;;;;;;20.30;18.50;;;12.90;91.20;;;;;;5071485;28;20485;-47
2023/09/17 02:53:15;;;;;;;17.63;16.13;;;12.90;91.20;;;;;;5068130;28;20033;-47
2023/09/17 02:55:43;;;;;;;19.42;17.77;;;12.90;91.30;;;;;;5031410;28;20082;-47
2023/09/17 02:58:09;;;;;;;19.23;17.52;;;12.90;91.30;;;;;;5068370;28;20118;-49
2023/09/17 03:00:36;;;;;;;19.90;18.27;;;12.90;91.40;;;;;;5063914;28;20028;-46
2023/09/17 03:03:03;;;;;;;18.23;16.73;;;12.90;91.60;;;;;;5055462;28;20434;-46
2023/09/17 03:05:30;;;;;;;18.52;17.02;;;12.90;91.60;;;;;;5067964;28;20142;-47
2023/09/17 03:07:56;;;;;;;17.95;16.35;;;12.90;91.60;;;;;;5049135;28;20029;-49
2023/09/17 03:10:23;;;;;;;17.92;16.52;;;12.90;91.60;;;;;;5066061;28;20044;-50
2023/09/17 03:12:52;;;;;;;17.75;16.25;;;12.90;91.60;;;;;;5070776;28;20073;-44
2023/09/17 03:15:19;;;;;;;18.10;16.33;;;12.90;91.60;;;;;;5067828;28;20033;-45
2023/09/17 03:17:44;;;;;;;19.05;17.48;;;12.90;91.50;;;;;;5072922;28;20031;-45
2023/09/17 03:20:14;;;;;;;17.95;16.50;;;12.90;91.50;;;;;;5072273;28;20021;-50
2023/09/17 03:22:41;;;;;;;17.23;15.57;;;12.90;91.50;;;;;;5046462;28;20028;-46
2023/09/17 03:25:08;;;;;;;17.30;15.75;;;12.90;91.50;;;;;;5044286;28;20100;-49
2023/09/17 03:27:36;;;;;;;18.08;16.48;;;12.90;91.50;;;;;;5072719;28;20501;-46
2023/09/17 03:30:07;;;;;;;17.63;16.23;;;12.90;91.20;;;;;;5057746;28;20045;-45
2023/09/17 03:32:35;;;;;;;17.42;15.93;;;12.90;91.30;;;;;;5069632;28;20032;-49
2023/09/17 03:35:03;;;;;;;16.52;15.18;;;12.80;91.30;;;;;;5071609;28;20036;-47
2023/09/17 03:37:30;;;;;;;16.83;15.15;;;12.80;91.20;;;;;;5072708;28;20024;-49
2023/09/17 03:40:14;;;;;;;17.42;15.77;;;12.80;91.20;;;;;;5064719;28;20388;-47
2023/09/17 03:42:46;;;;;;;16.92;15.52;;;12.80;91.20;;;;;;5072763;28;20154;-51
2023/09/17 03:45:16;;;;;;;18.38;16.77;;;12.80;91.10;;;;;;5070239;28;20025;-47
2023/09/17 03:47:43;;;;;;;;;;;12.80;91.10;;;;;;5016308;28;20047;-47
2023/09/17 03:50:13;;;;;;;16.13;14.75;;;12.80;91.20;;;;;;5032823;28;20250;-46
2023/09/17 03:52:46;;;;;;;17.08;15.63;;;12.70;91.10;;;;;;5032733;28;20029;-45
2023/09/17 03:55:14;;;;;;;14.55;13.40;;;12.80;91.10;;;;;;5036694;28;20124;-46
2023/09/17 03:57:40;;;;;;;15.90;14.60;;;12.80;91.10;;;;;;5053080;28;20458;-45
2023/09/17 04:00:10;;;;;;;17.42;15.95;;;12.80;91.10;;;;;;5070642;28;20028;-49
2023/09/17 04:02:37;;;;;;;17.10;15.50;;;12.80;91.20;;;;;;5065234;28;20017;-47
2023/09/17 04:05:09;;;;;;;16.23;14.93;;;12.80;91.20;;;;;;5035840;28;20092;-48
2023/09/17 04:07:40;;;;;;;15.80;14.52;;;12.70;91.30;;;;;;5039522;28;20024;-49
2023/09/17 04:10:07;;;;;;;14.32;13.23;;;12.80;91.30;;;;;;5068611;28;20354;-47
2023/09/17 04:12:37;;;;;;;14.95;13.75;;;12.70;91.10;;;;;;5053293;28;20401;-48
2023/09/17 04:15:12;;;;;;;14.73;13.63;;;12.70;90.90;;;;;;5063121;28;20040;-50
2023/09/17 04:17:39;;;;;;;16.25;15.00;;;12.60;91.00;;;;;;5032404;28;20351;-46
2023/09/17 04:20:18;;;;;;;14.73;13.52;;;12.60;90.90;;;;;;5015147;28;20041;-46
2023/09/17 04:22:52;;;;;;;13.88;12.82;;;12.50;90.90;;;;;;5039731;28;20033;-46
2023/09/17 04:25:21;;;;;;;14.38;13.25;;;12.60;91.00;;;;;;5064349;28;20094;-49
2023/09/17 04:27:49;;;;;;;15.70;14.50;;;12.60;91.00;;;;;;5054507;28;20031;-47
2023/09/17 04:30:16;;;;;;;15.55;14.35;;;12.50;91.00;;;;;;5069052;28;20044;-49
2023/09/17 04:32:48;;;;;;;16.83;15.43;;;12.50;90.90;;;;;;5045607;28;20461;-49
2023/09/17 04:35:17;;;;;;;15.02;13.85;;;12.50;91.00;;;;;;5040881;28;20101;-50
2023/09/17 04:37:46;;;;;;;15.63;14.40;;;12.50;91.10;;;;;;5056236;28;20366;-48
2023/09/17 04:40:17;;;;;;;14.40;13.30;;;12.50;91.10;;;;;;5068695;28;20104;-47
2023/09/17 04:42:48;;;;;;;14.57;13.48;;;12.50;91.20;;;;;;5072705;28;20308;-46
2023/09/17 04:45:39;;;;;;;15.02;13.82;;;12.50;91.20;;;;;;5069329;28;20059;-48
2023/09/17 04:48:06;;;;;;;14.52;13.40;;;12.50;91.20;;;;;;5043948;28;20127;-50
2023/09/17 04:50:34;;;;;;;15.55;14.35;;;12.50;91.20;;;;;;5039157;28;20033;-50
2023/09/17 04:53:00;;;;;;;16.27;14.98;;;12.50;91.20;;;;;;5056540;28;20017;-46
2023/09/17 04:55:28;;;;;;;15.35;14.15;;;12.50;91.20;;;;;;5072525;28;20044;-48
2023/09/17 04:57:57;;;;;;;18.73;17.08;;;12.50;91.20;;;;;;5075387;28;20485;-46
2023/09/17 05:00:23;;;;;;;14.90;13.60;;;12.50;91.20;;;;;;5064944;28;20041;-48
2023/09/17 05:02:50;;;;;;;16.67;15.35;;;12.50;91.20;;;;;;5047140;28;20041;-46
2023/09/17 05:05:21;;;;;;;16.40;15.10;;;12.50;91.10;;;;;;5061383;28;20024;-45
2023/09/17 05:07:48;;;;;;;16.58;15.07;;;12.50;91.10;;;;;;5050596;28;20034;-43
2023/09/17 05:10:18;;;;;;;16.88;15.48;;;12.50;91.10;;;;;;5070936;28;20029;-47
2023/09/17 05:12:47;;;;;;;17.95;16.48;;;12.50;91.20;;;;;;5064635;28;20033;-49
2023/09/17 05:15:16;;;;;;;17.42;16.13;;;12.50;91.20;;;;;;5069870;28;20024;-50
2023/09/17 05:17:43;;;;;;;17.52;15.95;;;12.50;91.30;;;;;;5075074;28;20024;-49
2023/09/17 05:20:11;;;;;;;17.67;16.15;;;12.60;91.30;;;;;;5050406;28;20029;-46
2023/09/17 05:22:37;;;;;;;17.52;16.05;;;12.60;91.50;;;;;;5035215;28;20109;-46
2023/09/17 05:25:08;;;;;;;19.50;17.80;;;12.60;91.60;;;;;;5065219;28;20052;-50
2023/09/17 05:27:35;;;;;;;18.45;16.95;;;12.70;91.60;;;;;;5066676;28;20029;-47
2023/09/17 05:30:02;;;;;;;18.55;16.98;;;12.70;91.70;;;;;;5052642;28;20299;-48
2023/09/17 05:32:28;;;;;;;17.05;15.68;;;12.80;91.70;;;;;;5066039;28;20031;-48
2023/09/17 05:34:57;;;;;;;18.10;16.60;;;12.90;91.80;;;;;;5069179;28;20116;-47
2023/09/17 05:37:24;;;;;;;17.33;15.90;;;12.90;91.90;;;;;;5020727;28;20029;-46
2023/09/17 05:39:51;;;;;;;17.48;16.08;;;12.90;92.00;;;;;;5060366;28;20094;-47
2023/09/17 05:42:19;;;;;;;17.92;16.33;;;13.00;92.10;;;;;;5050032;28;20048;-48
2023/09/17 05:44:45;;;;;;;20.83;19.23;;;13.10;92.10;;;;;;5054375;28;20017;-44
2023/09/17 05:47:12;;;;;;;18.13;16.40;;;13.20;92.10;;;;;;5053185;28;20041;-46
2023/09/17 05:49:39;;;;;;;20.48;18.65;;;13.30;92.10;;;;;;5053198;28;20032;-45
2023/09/17 05:52:06;;;;;;;20.15;18.35;;;13.40;92.20;;;;;;5054253;28;20017;-48
2023/09/17 05:54:33;;;;;;;21.42;19.58;;;13.40;92.20;;;;;;5051148;28;20048;-47
2023/09/17 05:56:59;;;;;;;19.60;17.83;;;13.50;92.30;;;;;;5052792;28;20450;-43
2023/09/17 05:59:25;;;;;;;20.80;19.20;;;13.60;92.50;;;;;;5054772;28;20044;-50
2023/09/17 06:01:52;;;;;;;18.08;16.60;;;13.60;92.40;;;;;;5051783;28;20021;-48
2023/09/17 06:04:20;;;;;;;20.80;19.10;;;13.80;92.50;;;;;;5045010;28;20025;-46
2023/09/17 06:06:47;;;;;;;19.75;17.95;;;13.90;92.50;;;;;;5050427;28;20387;-46
2023/09/17 06:09:13;;;;;;;19.63;17.83;;;13.90;92.50;;;;;;5049374;28;20347;-48
2023/09/17 06:11:40;;;;;;;18.52;16.98;;;14.00;92.50;;;;;;5054892;28;20108;-48
2023/09/17 06:14:07;;;;;;;17.30;15.90;;;14.10;92.40;;;;;;5054042;28;20093;-51
2023/09/17 06:16:34;;;;;;;17.58;15.90;;;14.20;92.50;;;;;;5060704;28;20028;-48
2023/09/17 06:19:00;;;;;;;18.67;17.17;;;14.30;92.60;;;;;;5051721;28;20468;-49
2023/09/17 06:21:27;;;;;;;16.42;14.98;;;14.40;92.60;;;;;;5053402;28;20091;-48
2023/09/17 06:23:53;;;;;;;19.45;17.83;;;14.60;92.70;;;;;;5054255;28;20028;-47
2023/09/17 06:26:19;;;;;;;20.35;18.38;;;14.80;92.70;;;;;;5053403;28;20415;-50
2023/09/17 06:28:47;;;;;;;19.60;17.70;;;14.90;92.80;;;;;;5064036;28;20374;-46
2023/09/17 06:31:12;;;;;;;22.05;20.05;;;15.10;92.80;;;;;;5026739;28;20029;-48
2023/09/17 06:33:41;;;;;;;21.42;19.67;;;15.30;92.80;;;;;;5053453;28;20063;-48
2023/09/17 06:36:08;;;;;;;20.05;18.45;;;15.40;92.80;;;;;;5035928;28;20580;-48
2023/09/17 06:38:36;;;;;;;23.35;21.35;;;15.50;92.80;;;;;;5069957;28;20029;-49
2023/09/17 06:41:02;;;;;;;21.95;19.90;;;15.60;92.80;;;;;;5061687;28;20022;-48
2023/09/17 06:43:29;;;;;;;22.63;20.50;;;15.80;92.80;;;;;;5051743;28;20021;-45
2023/09/17 06:45:55;;;;;;;20.33;18.70;;;15.90;92.90;;;;;;5062635;28;20562;-47
2023/09/17 06:48:22;;;;;;;18.60;17.00;;;16.10;92.80;;;;;;5070717;28;20111;-50
2023/09/17 06:50:49;;;;;;;19.13;17.38;;;16.20;92.90;;;;;;5046432;28;20037;-46
2023/09/17 06:53:17;;;;;;;18.65;17.05;;;16.30;92.70;;;;;;5050540;28;20373;-51
2023/09/17 06:55:45;;;;;;;20.48;18.23;;;16.40;92.70;;;;;;5053526;28;20480;-49
2023/09/17 06:58:12;;;;;;;20.35;18.65;;;16.40;92.80;;;;;;5045711;28;20033;-48
2023/09/17 07:00:39;;;;;;;21.77;19.90;;;16.50;92.70;;;;;;5047018;28;20533;-52
2023/09/17 07:03:04;;;;;;;23.45;21.25;;;16.50;92.70;;;;;;5061047;28;20358;-47
2023/09/17 07:05:30;;;;;;;26.50;24.10;;;16.60;92.80;;;;;;5054067;28;20030;-46
2023/09/17 07:08:01;;;;;;;22.38;20.45;;;16.60;92.70;;;;;;5056791;28;20060;-48
2023/09/17 07:10:27;;;;;;;21.33;19.45;;;16.70;92.80;;;;;;5057091;28;20041;-51
2023/09/17 07:12:54;;;;;;;22.65;20.73;;;16.70;92.80;;;;;;5060721;28;20063;-52
2023/09/17 07:15:22;;;;;;;20.40;18.50;;;16.80;92.80;;;;;;5069862;28;20032;-47
2023/09/17 07:17:48;;;;;;;21.58;19.63;;;16.80;93.00;;;;;;5066502;28;20339;-51
2023/09/17 07:20:15;;;;;;;20.83;19.13;;;16.90;93.00;;;;;;5045803;28;20052;-45
2023/09/17 07:22:41;;;;;;;22.45;20.48;;;16.90;93.10;;;;;;5045190;28;20381;-49
2023/09/17 07:25:08;;;;;;;23.92;21.90;;;17.00;93.20;;;;;;5050101;28;20021;-46
2023/09/17 07:27:36;;;;;;;24.10;22.00;;;17.10;93.40;;;;;;5041064;28;20040;-51
2023/09/17 07:30:04;;;;;;;22.52;20.52;;;17.20;93.50;;;;;;5053560;28;20040;-51
2023/09/17 07:32:32;;;;;;;23.17;21.02;;;17.20;93.50;;;;;;5047810;28;20025;-50
2023/09/17 07:35:01;;;;;;;22.45;20.45;;;17.40;93.60;;;;;;5052681;28;20127;-48
2023/09/17 07:37:29;;;;;;;24.45;22.08;;;17.40;93.80;;;;;;5053773;28;20052;-52
2023/09/17 07:40:04;;;;;;;25.90;23.50;;;17.50;93.90;;;;;;5056945;28;20028;-50
2023/09/17 07:42:31;;;;;;;25.80;23.48;;;17.60;93.90;;;;;;5062897;28;20059;-47
2023/09/17 07:44:59;;;;;;;24.05;21.75;;;17.70;94.00;;;;;;5050797;28;20462;-47
2023/09/17 07:47:27;;;;;;;23.85;21.77;;;17.90;94.00;;;;;;5062661;28;20037;-49
2023/09/17 07:49:54;;;;;;;25.92;23.63;;;17.90;93.90;;;;;;5046774;28;20032;-50
2023/09/17 07:52:24;;;;;;;23.70;21.42;;;17.90;93.80;;;;;;5032645;28;20029;-50
2023/09/17 07:54:51;;;;;;;23.05;21.00;;;18.00;93.70;;;;;;5055710;28;20047;-52
2023/09/17 07:57:16;;;;;;;23.52;21.38;;;18.00;93.40;;;;;;5049735;28;20090;-48
2023/09/17 07:59:45;;;;;;;24.70;22.42;;;18.10;93.30;;;;;;5032029;28;20447;-50
2023/09/17 08:02:15;;;;;;;25.02;22.55;;;18.10;93.20;;;;;;5042105;28;20079;-50
2023/09/17 08:04:42;;;;;;;27.27;24.38;;;18.20;92.90;;;;;;5049930;28;20049;-50
2023/09/17 08:07:09;;;;;;;23.80;21.52;;;18.30;92.60;;;;;;5057953;28;20362;-49
2023/09/17 08:09:35;;;;;;;22.02;19.85;;;18.40;92.30;;;;;;5058896;28;20033;-49
2023/09/17 08:12:06;;;;;;;22.58;20.20;;;18.50;92.30;;;;;;5058535;28;20025;-52
2023/09/17 08:14:44;;;;;;;21.85;19.85;;;18.60;91.70;;;;;;5066740;28;20044;-51
2023/09/17 08:17:13;;;;;;;24.90;22.35;;;18.90;91.40;;;;;;5065116;28;20119;-52
2023/09/17 08:19:46;;;;;;;24.45;22.25;;;19.00;90.70;;;;;;5049704;28;20036;-51
2023/09/17 08:22:12;;;;;;;26.42;23.73;;;19.20;89.70;;;;;;5054693;28;20501;-55
2023/09/17 08:24:39;;;;;;;26.35;24.05;;;19.20;88.70;;;;;;5053765;28;20086;-53
2023/09/17 08:27:06;;;;;;;24.08;21.92;;;19.20;88.30;;;;;;5038767;28;20301;-51
2023/09/17 08:29:35;;;;;;;23.05;20.80;;;19.10;88.40;;;;;;5024220;28;20082;-55
2023/09/17 08:32:04;;;;;;;22.85;20.85;;;19.20;88.50;;;;;;5045467;28;20036;-54
2023/09/17 08:34:30;;;;;;;20.95;18.85;;;19.20;88.50;;;;;;5078365;28;20024;-54
2023/09/17 08:36:57;;;;;;;25.15;22.52;;;19.20;88.30;;;;;;5066307;28;20099;-53
2023/09/17 08:39:25;;;;;;;22.45;20.38;;;19.10;88.00;;;;;;5059167;28;20033;-55
2023/09/17 08:41:53;;;;;;;23.52;21.27;;;19.10;88.10;;;;;;5045050;28;20025;-51
2023/09/17 08:44:21;;;;;;;19.90;17.90;;;19.00;88.30;;;;;;5067711;28;20028;-55
2023/09/17 08:46:52;;;;;;;25.88;23.35;;;19.10;88.70;;;;;;5056162;28;20032;-51
2023/09/17 08:49:19;;;;;;;19.75;17.73;;;19.10;88.40;;;;;;5055172;28;20119;-55
2023/09/17 08:51:52;;;;;;;21.35;19.35;;;19.10;88.70;;;;;;5057841;28;20025;-54
2023/09/17 08:54:29;;;;;;;22.02;19.83;;;19.30;89.00;;;;;;5048263;28;20049;-50
2023/09/17 08:57:03;;;;;;;21.77;19.70;;;19.30;88.50;;;;;;5043183;28;20462;-54
2023/09/17 08:59:33;;;;;;;20.02;18.17;;;19.40;87.80;;;;;;5055271;28;20457;-54
2023/09/17 09:02:07;;;;;;;20.27;18.27;;;19.40;87.40;;;;;;5047261;28;20032;-55
2023/09/17 09:04:34;;;;;;;23.25;21.10;;;19.40;87.30;;;;;;5044444;28;20021;-50
2023/09/17 09:07:01;;;;;;;23.08;20.88;;;19.50;87.00;;;;;;5037097;28;20021;-52
2023/09/17 09:09:30;;;;;;;20.10;18.15;;;19.50;86.80;;;;;;5047269;28;20445;-51
2023/09/17 09:11:57;;;;;;;20.42;18.13;;;19.60;87.10;;;;;;5046196;28;20056;-53
2023/09/17 09:14:24;;;;;;;20.98;18.67;;;19.80;86.50;;;;;;5051693;28;20080;-54
2023/09/17 09:16:52;;;;;;;21.23;17.38;;;19.90;86.10;;;;;;5031853;28;20124;-50
2023/09/17 09:19:18;;;;;;;15.95;14.45;;;20.00;85.30;;;;;;5047251;28;20028;-54
2023/09/17 09:21:48;;;;;;;14.82;13.40;;;20.20;84.70;;;;;;5030200;28;20074;-55
2023/09/17 09:24:17;;;;;;;15.82;14.23;;;20.40;84.60;;;;;;5060014;28;20086;-49
2023/09/17 09:26:44;;;;;;;14.90;13.50;;;20.50;84.10;;;;;;5052220;28;20346;-54
2023/09/17 09:29:10;;;;;;;13.75;12.23;;;20.60;83.10;;;;;;5041333;28;20042;-54
2023/09/17 09:31:36;;;;;;;14.15;12.75;;;20.60;81.80;;;;;;5044998;28;20039;-54
2023/09/17 09:34:04;;;;;;;11.57;10.38;;;20.60;81.40;;;;;;5034091;28;20171;-52
2023/09/17 09:36:36;;;;;;;14.10;12.70;;;20.60;81.00;;;;;;5033430;28;20032;-56
2023/09/17 09:39:05;;;;;;;13.52;12.13;;;20.60;80.40;;;;;;5045201;28;20029;-54
2023/09/17 09:41:33;;;;;;;13.73;12.32;;;20.60;80.30;;;;;;5047153;28;20120;-55
2023/09/17 09:44:00;;;;;;;14.23;12.82;;;20.70;81.30;;;;;;5048888;28;20048;-54
2023/09/17 09:46:28;;;;;;;17.65;16.05;;;20.80;81.60;;;;;;5043146;28;20033;-54
2023/09/17 09:49:00;;;;;;;16.92;15.35;;;20.90;81.80;;;;;;5061271;28;20028;-51
2023/09/17 09:51:29;;;;;;;20.80;18.80;;;21.20;82.00;;;;;;5034718;28;20036;-52
2023/09/17 09:53:55;;;;;;;19.33;17.42;;;21.20;79.70;;;;;;5043229;28;20041;-55
2023/09/17 09:56:28;;;;;;;17.77;15.98;;;21.40;79.70;;;;;;5052436;28;20029;-50
2023/09/17 09:59:00;;;;;;;19.58;17.58;;;21.60;80.20;;;;;;5028889;28;20417;-54
2023/09/17 10:01:28;;;;;;;19.33;17.55;;;22.00;80.10;;;;;;5045843;28;20108;-53
2023/09/17 10:04:05;;;;;;;16.77;15.27;;;22.20;77.80;;;;;;5044544;28;20041;-52
2023/09/17 10:06:31;;;;;;;16.15;14.43;;;22.50;76.50;;;;;;5038456;28;20035;-52
2023/09/17 10:09:00;;;;;;;15.88;14.25;;;22.70;76.40;;;;;;5050802;28;20031;-55
2023/09/17 10:11:26;;;;;;;19.45;16.85;;;22.90;76.50;;;;;;5046831;28;20025;-52
2023/09/17 10:14:13;;;;;;;19.38;17.55;;;22.90;73.90;;;;;;5047582;28;20032;-54
2023/09/17 10:16:43;;;;;;;17.00;15.32;;;22.80;74.60;;;;;;5045745;28;20040;-53
2023/09/17 10:19:11;;;;;;;19.13;17.27;;;22.80;75.20;;;;;;5040694;28;20042;-51
2023/09/17 10:21:39;;;;;;;16.90;14.90;;;22.80;76.30;;;;;;5045320;28;20045;-52
2023/09/17 10:24:08;;;;;;;16.52;14.93;;;22.90;76.60;;;;;;5036667;28;20090;-52
2023/09/17 10:26:41;;;;;;;17.45;15.88;;;22.90;76.00;;;;;;5043548;28;20025;-53
2023/09/17 10:29:13;;;;;;;18.30;16.45;;;22.80;75.70;;;;;;5034182;28;20033;-53
2023/09/17 10:31:45;;;;;;;21.33;19.42;;;22.70;75.30;;;;;;5045493;28;20048;-56
2023/09/17 10:34:17;;;;;;;18.08;16.38;;;22.40;74.50;;;;;;5040055;28;20354;-56
2023/09/17 10:36:44;;;;;;;20.13;18.27;;;22.40;77.70;;;;;;5044178;28;20108;-53
2023/09/17 10:39:13;;;;;;;20.05;18.15;;;22.40;77.10;;;;;;5037381;28;20454;-53
2023/09/17 10:41:41;;;;;;;23.20;21.10;;;22.30;76.60;;;;;;5039122;28;20104;-56
2023/09/17 10:44:13;;;;;;;18.30;16.58;;;22.30;77.10;;;;;;5043536;28;20349;-52
2023/09/17 10:46:45;;;;;;;19.52;17.48;;;22.40;77.90;;;;;;5039488;28;20049;-56
2023/09/17 10:49:13;;;;;;;15.82;14.30;;;22.40;76.80;;;;;;5049681;28;20037;-55
2023/09/17 10:51:44;;;;;;;18.23;16.55;;;22.40;77.10;;;;;;5051992;28;20102;-55
2023/09/17 10:54:11;;;;;;;16.05;14.02;;;22.50;77.60;;;;;;5052120;28;20048;-53
2023/09/17 10:56:42;;;;;;;18.23;16.35;;;22.60;77.30;;;;;;5037254;28;20033;-54
2023/09/17 10:59:15;;;;;;;18.23;16.38;;;22.70;77.10;;;;;;5053247;28;20094;-53
2023/09/17 11:01:43;;;;;;;17.15;15.35;;;22.60;76.60;;;;;;5048321;28;20025;-54
2023/09/17 11:04:16;;;;;;;20.02;17.52;;;22.50;77.10;;;;;;5050338;28;20035;-53
2023/09/17 11:06:46;;;;;;;18.70;16.98;;;22.40;77.00;;;;;;5053534;28;20025;-53
2023/09/17 11:09:13;;;;;;;19.42;17.52;;;22.30;77.10;;;;;;5038195;28;20500;-56
2023/09/17 11:11:41;;;;;;;16.42;14.82;;;22.00;76.80;;;;;;5046815;28;20035;-54
2023/09/17 11:14:10;;;;;;;17.20;15.40;;;21.90;76.50;;;;;;5049229;28;20071;-53
2023/09/17 11:16:41;;;;;;;16.92;15.27;;;21.90;78.40;;;;;;5027452;28;20342;-54
2023/09/17 11:19:25;;;;;;;17.95;16.17;;;22.00;79.20;;;;;;5030034;28;20037;-56
2023/09/17 11:22:11;;;;;;;17.58;13.77;;;22.10;78.30;;;;;;5039477;28;20035;-53
2023/09/17 11:24:41;;;;;;;16.25;14.73;;;22.10;78.40;;;;;;5026437;28;20040;-55
2023/09/17 11:27:08;;;;;;;17.08;13.65;;;22.10;78.60;;;;;;5065971;28;20021;-53
2023/09/17 11:29:42;;;;;;;14.52;11.80;;;22.10;78.40;;;;;;5051133;28;20349;-56
2023/09/17 11:32:10;;;;;;;14.68;11.70;;;22.10;79.00;;;;;;5065393;28;20040;-56
2023/09/17 11:34:40;;;;;;;13.32;11.23;;;22.00;78.80;;;;;;5059048;28;20034;-53
2023/09/17 11:37:09;;;;;;;13.55;11.30;;;22.00;79.00;;;;;;5037741;28;20074;-53
2023/09/17 11:39:48;;;;;;;11.93;10.73;;;22.10;79.00;;;;;;5051440;28;20082;-56
2023/09/17 11:42:15;;;;;;;15.50;13.68;;;22.00;79.20;;;;;;5047853;28;20029;-54
2023/09/17 11:44:44;;;;;;;13.18;11.77;;;21.90;79.20;;;;;;5068845;28;20069;-54
2023/09/17 11:47:12;;;;;;;11.85;10.65;;;21.80;79.70;;;;;;5063461;28;20021;-53
2023/09/17 11:49:42;;;;;;;12.05;10.95;;;21.80;80.10;;;;;;5048819;28;20044;-55
2023/09/17 11:52:12;;;;;;;9.93;8.93;;;21.80;80.30;;;;;;5050601;28;20488;-55
2023/09/17 11:54:52;;;;;;;13.98;11.45;;;21.70;80.60;;;;;;5049913;28;20127;-55
2023/09/17 11:57:22;;;;;;;12.05;10.90;;;21.60;80.90;;;;;;5050487;28;20128;-56
2023/09/17 11:59:49;;;;;;;12.02;10.63;;;21.70;81.40;;;;;;5030945;28;20079;-51
2023/09/17 12:02:19;;;;;;;10.68;9.57;;;21.70;81.10;;;;;;5045324;28;20502;-58
2023/09/17 12:04:51;;;;;;;10.70;9.60;;;21.80;81.80;;;;;;5018504;28;20123;-56
2023/09/17 12:07:17;;;;;;;8.77;7.88;;;22.00;81.50;;;;;;5048818;28;20474;-56
2023/09/17 12:10:08;;;;;;;9.45;8.02;;;22.30;82.20;;;;;;5049118;28;20036;-53
2023/09/17 12:12:36;;;;;;;8.85;7.88;;;22.60;82.10;;;;;;5039694;28;20381;-57
2023/09/17 12:15:05;;;;;;;11.15;8.73;;;22.90;80.70;;;;;;5039183;28;20053;-57
2023/09/17 12:17:35;;;;;;;9.02;7.18;;;23.10;78.60;;;;;;5047024;28;20036;-57
2023/09/17 12:20:20;;;;;;;8.85;6.88;;;23.30;77.90;;;;;;5039860;28;20039;-54
2023/09/17 12:23:06;;;;;;;8.85;7.95;;;23.40;76.20;;;;;;5069582;28;20043;-57
2023/09/17 12:25:43;;;;;;;8.73;7.65;;;23.50;75.60;;;;;;5054061;28;20024;-56
2023/09/17 12:28:12;;;;;;;7.45;6.65;;;23.50;75.10;;;;;;5049277;28;20041;-56
2023/09/17 12:30:38;;;;;;;6.65;5.82;;;23.50;75.70;;;;;;5065734;28;20044;-56
2023/09/17 12:33:05;;;;;;;8.65;6.60;;;23.60;76.70;;;;;;5038595;28;20070;-54
2023/09/17 12:35:31;;;;;;;7.85;6.57;;;23.60;75.50;;;;;;5025356;28;21645;-57
2023/09/17 12:38:00;;;;;;;8.05;6.35;;;23.50;74.80;;;;;;5028689;28;20044;-57